Time;durP1;ratioP1;P1;durP2;ratioP2;P2;SDS_P1;SDS_P2;PMS_P1;PMS_P2;Temp;Humidity;BMP_temperature;BMP_pressure;BME280_temperature;BME280_humidity;BME280_pressure;Samples;Min_cycle;Max_cycle;Signal;HPM_P1;HPM_P2
2023/02/16 00:01:51;;;;;;;13.93;5.63;;;;;;;7.38;75.27;100645.91;5040340;28;20080;-45
2023/02/16 00:04:24;;;;;;;12.18;6.13;;;;;;;7.40;75.43;100636.47;5038006;28;20049;-44
2023/02/16 00:06:51;;;;;;;15.88;6.28;;;;;;;7.38;76.54;100630.44;5042635;28;20091;-44
2023/02/16 00:09:19;;;;;;;14.60;6.50;;;;;;;7.39;75.22;100632.16;5037836;28;20413;-45
2023/02/16 00:14:36;;;;;;;11.85;6.05;;;;;;;7.38;76.37;100635.59;5031703;28;20417;-45
2023/02/16 00:17:04;;;;;;;14.25;5.25;;;;;;;7.39;75.94;100641.59;5033394;28;20045;-44
2023/02/16 00:19:37;;;;;;;9.23;5.57;;;;;;;7.39;76.20;100637.31;5037659;28;20095;-44
2023/02/16 00:22:04;;;;;;;12.07;5.63;;;;;;;7.39;75.27;100629.59;5034097;28;20095;-44
2023/02/16 00:24:31;;;;;;;10.68;5.25;;;;;;;7.40;76.22;100638.22;5038610;28;20128;-44
2023/02/16 00:26:59;;;;;;;12.77;3.55;;;;;;;7.38;75.79;100625.28;5034687;28;21975;-46
2023/02/16 00:29:32;;;;;;;11.68;5.72;;;;;;;7.40;74.93;100620.16;5033317;28;21643;-45
2023/02/16 00:32:01;;;;;;;14.15;5.00;;;;;;;7.40;75.76;100615.88;5038446;28;20084;-45
2023/02/16 00:37:07;;;;;;;10.13;3.38;;;;;;;7.42;75.39;100618.47;5093076;27;20409;-45
2023/02/16 00:39:35;;;;;;;8.25;3.08;;;;;;;7.41;76.23;100620.19;5055512;28;20509;-46
2023/02/16 00:42:06;;;;;;;10.18;3.08;;;;;;;7.42;75.27;100609.03;5034600;28;20503;-45
2023/02/16 00:44:36;;;;;;;10.30;2.75;;;;;;;7.43;76.54;100607.34;5052152;28;20462;-44
2023/02/16 00:49:48;;;;;;;8.05;2.67;;;;;;;7.44;75.13;100612.50;5046332;27;20384;-45
2023/02/16 00:55:00;;;;;;;6.22;2.65;;;;;;;7.44;76.10;100602.19;5093919;27;20432;-45
2023/02/16 00:57:32;;;;;;;8.25;2.42;;;;;;;7.46;75.33;100604.81;5062603;28;20151;-46
2023/02/16 01:00:06;;;;;;;7.07;1.60;;;;;;;7.45;76.94;100609.09;5061093;28;20045;-44
2023/02/16 01:02:32;;;;;;;6.43;1.52;;;;;;;7.46;75.25;100608.25;5057125;28;20111;-46
2023/02/16 01:04:59;;;;;;;4.82;1.40;;;;;;;7.46;75.33;100591.91;5052196;28;20676;-45
2023/02/16 01:12:59;;;;;;;6.95;1.77;;;;;;;7.50;75.37;100582.56;5059691;28;20179;-43
2023/02/16 01:15:26;;;;;;;6.50;2.25;;;;;;;7.50;75.77;100583.41;5053395;28;20088;-44
2023/02/16 01:17:53;;;;;;;4.65;1.63;;;;;;;7.49;75.29;100581.66;5059633;28;20049;-45
2023/02/16 01:20:23;;;;;;;5.15;1.90;;;;;;;7.51;75.63;100581.69;5066496;28;20385;-44
2023/02/16 01:22:52;;;;;;;4.32;2.03;;;;;;;7.52;75.54;100586.00;5057267;28;20053;-43
2023/02/16 01:25:20;;;;;;;4.82;1.75;;;;;;;7.52;75.28;100586.88;5054397;28;20541;-44
2023/02/16 01:27:49;;;;;;;5.43;1.65;;;;;;;7.52;76.35;100580.84;5053261;28;20064;-44
2023/02/16 01:30:20;;;;;;;6.15;1.75;;;;;;;7.54;76.15;100589.50;5055226;28;20075;-45
2023/02/16 01:32:52;;;;;;;7.93;1.85;;;;;;;7.54;75.52;100594.66;5055171;28;20403;-44
2023/02/16 01:35:27;;;;;;;5.68;2.13;;;;;;;7.53;75.48;100585.19;5058414;28;20322;-43
2023/02/16 01:37:55;;;;;;;2.97;1.38;;;;;;;7.56;75.67;100585.22;5061406;28;20131;-44
2023/02/16 01:40:45;;;;;;;4.90;1.63;;;;;;;7.51;75.72;100573.97;5082191;28;20458;-45
2023/02/16 01:43:21;;;;;;;7.22;1.50;;;;;;;7.54;75.62;100579.19;5076785;28;20071;-45
2023/02/16 01:46:04;;;;;;;4.63;1.23;;;;;;;7.55;76.55;100584.38;5075943;28;20077;-45
2023/02/16 01:48:32;;;;;;;4.10;1.45;;;;;;;7.52;76.50;100574.00;5075696;28;20044;-44
2023/02/16 01:54:15;;;;;;;4.57;1.42;;;;;;;7.53;75.57;100585.19;5036077;28;20411;-45
2023/02/16 01:56:50;;;;;;;5.40;1.58;;;;;;;7.56;75.76;100577.47;4985553;28;20042;-44
2023/02/16 01:59:33;;;;;;;5.38;1.50;;;;;;;7.55;76.31;100580.91;5006852;28;20574;-45
2023/02/16 02:02:02;;;;;;;4.50;1.48;;;;;;;7.57;76.54;100568.94;4999005;28;20116;-45
2023/02/16 02:07:05;;;;;;;5.85;1.98;;;;;;;7.56;75.95;100559.44;5076652;27;21161;-44
2023/02/16 02:09:41;;;;;;;3.85;2.05;;;;;;;7.58;75.31;100552.63;5027425;28;20091;-45
2023/02/16 02:15:08;;;;;;;4.35;1.83;;;;;;;7.58;75.11;100539.72;5033966;27;20906;-44
2023/02/16 02:17:36;;;;;;;7.70;3.25;;;;;;;7.58;74.60;100539.72;5000465;28;20120;-45
2023/02/16 02:33:58;;;;;;;3.40;2.08;;;;;;;7.44;74.79;100522.28;5023947;27;20417;-45
2023/02/16 02:42:06;;;;;;;3.03;1.90;;;;;;;7.40;73.76;100515.34;5045776;27;20378;-45
2023/02/16 02:44:41;;;;;;;3.28;1.92;;;;;;;7.42;75.07;100508.53;5025306;28;20635;-44
2023/02/16 02:47:08;;;;;;;3.80;1.75;;;;;;;7.40;74.02;100499.88;5036322;28;20387;-44
2023/02/16 02:49:34;;;;;;;4.10;2.05;;;;;;;7.39;75.13;100495.59;5037106;28;20065;-43
2023/02/16 02:52:01;;;;;;;3.03;1.73;;;;;;;7.35;74.29;100491.22;5034400;28;20069;-44
2023/02/16 03:00:40;;;;;;;5.43;1.85;;;;;;;7.35;74.02;100486.06;5035406;28;20065;-45
2023/02/16 03:03:13;;;;;;;7.75;2.15;;;;;;;7.34;74.57;100481.75;5038336;28;20045;-44
2023/02/16 03:05:44;;;;;;;4.65;1.52;;;;;;;7.36;74.52;100477.47;5028337;28;20457;-45
2023/02/16 03:08:16;;;;;;;4.00;2.28;;;;;;;7.35;74.28;100468.03;5016239;28;20049;-44
2023/02/16 03:13:43;;;;;;;4.32;1.67;;;;;;;7.36;73.80;100467.19;5003998;28;20443;-43
2023/02/16 03:16:14;;;;;;;6.15;2.03;;;;;;;7.38;73.95;100460.34;5017771;28;20077;-44
2023/02/16 03:30:04;;;;;;;6.63;1.98;;;;;;;7.38;74.26;100439.72;5013093;28;20065;-43
2023/02/16 03:32:31;;;;;;;2.63;1.75;;;;;;;7.38;73.90;100434.56;5015617;28;20124;-44
2023/02/16 03:34:57;;;;;;;3.33;2.05;;;;;;;7.37;73.61;100427.69;5019724;28;20077;-45
2023/02/16 03:37:24;;;;;;;2.38;1.77;;;;;;;7.40;74.69;100427.72;5021883;28;20050;-44
2023/02/16 03:42:37;;;;;;;5.65;2.78;;;;;;;7.38;73.59;100408.81;4994791;28;20081;-43
2023/02/16 03:45:04;;;;;;;3.03;2.17;;;;;;;7.35;73.83;100405.31;5013425;28;20608;-45
2023/02/16 03:47:31;;;;;;;3.67;2.13;;;;;;;7.35;74.95;100406.19;5019934;28;20112;-44
2023/02/16 03:49:57;;;;;;;3.47;2.47;;;;;;;7.35;73.99;100402.72;5020513;28;20103;-43
2023/02/16 03:52:24;;;;;;;3.85;2.53;;;;;;;7.35;73.54;100403.59;5011453;28;20049;-44
2023/02/16 03:54:50;;;;;;;4.47;1.63;;;;;;;7.32;74.91;100398.38;5006244;28;20491;-44
2023/02/16 03:57:17;;;;;;;6.25;3.00;;;;;;;7.26;73.90;100398.31;4992446;28;20572;-45
2023/02/16 03:59:44;;;;;;;4.50;2.70;;;;;;;7.25;75.29;100388.81;4987463;28;20141;-45
2023/02/16 04:02:10;;;;;;;3.55;2.28;;;;;;;7.27;74.21;100397.47;4988094;28;20077;-45
2023/02/16 04:04:37;;;;;;;6.63;1.88;;;;;;;7.19;74.99;100397.31;4991224;28;20046;-45
2023/02/16 04:07:03;;;;;;;4.13;2.22;;;;;;;7.23;75.63;100398.25;5002191;28;20046;-45
2023/02/16 04:09:30;;;;;;;4.22;2.60;;;;;;;7.17;75.60;100394.72;5005072;28;20133;-50
2023/02/16 04:14:43;;;;;;;5.68;1.98;;;;;;;7.12;75.05;100391.19;5006191;28;20050;-43
2023/02/16 04:17:10;;;;;;;4.72;2.00;;;;;;;7.13;74.94;100382.63;5006312;28;20073;-45
2023/02/16 04:19:36;;;;;;;3.75;1.92;;;;;;;7.06;75.65;100370.50;5007535;28;20082;-44
2023/02/16 04:22:03;;;;;;;3.13;2.00;;;;;;;6.99;76.64;100373.81;5009656;28;20108;-46
2023/02/16 04:24:29;;;;;;;3.70;2.40;;;;;;;6.99;76.02;100378.97;4992516;28;20093;-45
2023/02/16 04:26:56;;;;;;;4.43;2.17;;;;;;;7.02;75.62;100371.28;4989918;28;20510;-43
2023/02/16 04:29:22;;;;;;;5.18;2.58;;;;;;;7.09;74.78;100374.84;4988045;28;20137;-44
2023/02/16 04:31:49;;;;;;;3.20;2.28;;;;;;;7.08;75.72;100371.38;4988693;28;20078;-44
2023/02/16 04:34:16;;;;;;;3.47;2.05;;;;;;;7.07;74.99;100374.81;4989121;28;20069;-44
2023/02/16 04:36:42;;;;;;;3.97;2.03;;;;;;;7.09;75.79;100374.84;4988863;28;20088;-44
2023/02/16 04:39:09;;;;;;;4.00;3.05;;;;;;;7.09;76.20;100374.84;4987368;28;20070;-44
2023/02/16 04:41:35;;;;;;;3.60;2.47;;;;;;;7.09;75.79;100367.13;4981678;28;20510;-44
2023/02/16 04:44:02;;;;;;;7.00;2.58;;;;;;;7.09;75.40;100375.69;4988330;28;20081;-44
2023/02/16 04:46:29;;;;;;;6.47;2.33;;;;;;;7.12;74.72;100380.91;4985526;28;20086;-44
2023/02/16 04:48:56;;;;;;;4.40;2.28;;;;;;;7.08;76.03;100368.81;4986497;28;20112;-45
2023/02/16 04:51:23;;;;;;;5.05;2.85;;;;;;;7.07;75.73;100372.22;4984103;28;20061;-44
2023/02/16 04:53:50;;;;;;;6.18;2.83;;;;;;;7.10;76.20;100364.56;4987829;28;20050;-44
2023/02/16 04:56:16;;;;;;;5.72;2.50;;;;;;;7.10;76.20;100362.00;4988393;28;20137;-44
2023/02/16 04:58:43;;;;;;;3.58;2.03;;;;;;;7.07;77.03;100355.06;4984920;28;20069;-44
2023/02/16 05:01:18;;;;;;;6.00;2.42;;;;;;;7.13;75.93;100367.16;4979280;28;20459;-44
2023/02/16 05:03:44;;;;;;;4.70;2.13;;;;;;;7.14;76.49;100358.63;4981012;28;20070;-46
2023/02/16 05:06:11;;;;;;;3.40;2.00;;;;;;;7.18;76.38;100355.25;4986475;28;20077;-46
2023/02/16 05:08:38;;;;;;;3.88;2.20;;;;;;;7.21;75.43;100364.72;4986642;28;20077;-44
2023/02/16 05:16:37;;;;;;;3.15;2.55;;;;;;;7.19;76.32;100356.09;4979867;28;20506;-45
2023/02/16 05:19:04;;;;;;;3.47;1.70;;;;;;;7.22;75.38;100351.00;4985049;28;20081;-44
2023/02/16 05:21:31;;;;;;;4.38;2.40;;;;;;;7.24;76.20;100353.59;4982475;28;20146;-44
2023/02/16 05:24:00;;;;;;;4.45;1.80;;;;;;;7.23;76.09;100341.56;4984120;28;20082;-45
2023/02/16 05:26:27;;;;;;;2.88;2.28;;;;;;;7.25;76.53;100339.88;4984874;28;20145;-44
2023/02/16 05:28:54;;;;;;;2.42;1.75;;;;;;;7.21;76.42;100338.97;4986469;28;20082;-43
2023/02/16 05:31:22;;;;;;;4.53;2.42;;;;;;;7.30;76.14;100333.09;5002144;28;20167;-44
2023/02/16 05:33:49;;;;;;;3.50;2.30;;;;;;;7.27;76.46;100327.91;4982109;28;20074;-44
2023/02/16 05:36:16;;;;;;;4.03;1.55;;;;;;;7.30;75.67;100328.78;4981146;28;20702;-44
2023/02/16 05:38:43;;;;;;;3.75;2.13;;;;;;;7.32;75.90;100327.13;4981137;28;20081;-43
2023/02/16 05:41:10;;;;;;;3.15;1.48;;;;;;;7.35;75.51;100331.44;4981846;28;20446;-43
2023/02/16 05:43:36;;;;;;;2.83;1.63;;;;;;;7.29;76.50;100332.22;4981780;28;20081;-44
2023/02/16 05:46:07;;;;;;;4.38;1.90;;;;;;;7.36;77.27;100333.16;4982281;28;20096;-43
2023/02/16 05:48:34;;;;;;;4.90;1.90;;;;;;;7.38;76.99;100331.50;4982247;28;20096;-43
2023/02/16 05:51:01;;;;;;;4.20;2.15;;;;;;;7.38;75.86;100326.34;4983987;28;20089;-43
2023/02/16 05:53:28;;;;;;;2.75;1.83;;;;;;;7.38;75.69;100310.88;4981359;28;20055;-44
2023/02/16 05:55:54;;;;;;;7.57;2.10;;;;;;;7.40;76.09;100309.19;4980927;28;20133;-43
2023/02/16 05:58:21;;;;;;;3.60;1.90;;;;;;;7.42;76.85;100307.50;4976466;28;20455;-43
2023/02/16 06:00:48;;;;;;;3.58;1.98;;;;;;;7.44;77.68;100310.09;4981240;28;20108;-43
2023/02/16 06:03:15;;;;;;;3.78;2.28;;;;;;;7.44;77.20;100299.78;4980597;28;20134;-43
2023/02/16 06:05:41;;;;;;;7.93;2.13;;;;;;;7.50;76.02;100309.31;4983272;28;20104;-45
2023/02/16 06:08:08;;;;;;;6.30;2.22;;;;;;;7.49;76.78;100307.59;4984456;28;20133;-43
2023/02/16 06:10:34;;;;;;;3.53;2.33;;;;;;;7.51;77.58;100305.91;4980455;28;20070;-43
2023/02/16 06:13:01;;;;;;;4.38;2.88;;;;;;;7.52;76.58;100308.50;4984643;28;20050;-44
2023/02/16 06:15:28;;;;;;;3.47;2.20;;;;;;;7.49;76.95;100307.59;4982842;28;20104;-43
2023/02/16 06:17:54;;;;;;;6.00;1.85;;;;;;;7.54;78.02;100300.78;4984426;28;20405;-44
2023/02/16 06:20:21;;;;;;;4.07;2.45;;;;;;;7.56;77.11;100304.25;4986097;28;20104;-45
2023/02/16 06:22:48;;;;;;;4.13;2.22;;;;;;;7.55;76.58;100298.25;4986958;28;20074;-44
2023/02/16 06:25:14;;;;;;;3.38;2.42;;;;;;;7.54;76.87;100303.38;4985595;28;20136;-45
2023/02/16 06:27:41;;;;;;;6.95;2.72;;;;;;;7.56;76.99;100299.97;4986092;28;20076;-44
2023/02/16 06:30:08;;;;;;;5.68;2.10;;;;;;;7.61;77.31;100287.16;4985781;28;20050;-45
2023/02/16 06:32:34;;;;;;;4.65;2.67;;;;;;;7.60;76.93;100290.53;4985458;28;20060;-44
2023/02/16 06:35:01;;;;;;;7.55;2.50;;;;;;;7.58;77.30;100281.94;4984458;28;20052;-45
2023/02/16 06:37:28;;;;;;;4.78;2.13;;;;;;;7.58;77.24;100287.09;4985200;28;20128;-45
2023/02/16 06:39:54;;;;;;;4.82;2.70;;;;;;;7.59;78.13;100281.09;4985842;28;20085;-44
2023/02/16 06:42:21;;;;;;;4.57;3.15;;;;;;;7.60;77.84;100280.22;4983478;28;20511;-46
2023/02/16 06:44:47;;;;;;;5.57;3.55;;;;;;;7.57;78.79;100275.06;4980637;28;20089;-45
2023/02/16 06:47:14;;;;;;;4.20;1.95;;;;;;;7.61;78.61;100266.53;4982498;28;20168;-45
2023/02/16 06:49:40;;;;;;;8.45;2.75;;;;;;;7.58;79.03;100271.63;4981379;28;20058;-46
2023/02/16 06:52:07;;;;;;;6.85;4.30;;;;;;;7.59;79.14;100268.19;4981044;28;20134;-44
2023/02/16 06:54:34;;;;;;;8.15;3.40;;;;;;;7.60;78.33;100264.75;4982864;28;20108;-45
2023/02/16 06:57:01;;;;;;;4.72;3.03;;;;;;;7.61;78.18;100270.78;4987136;28;20105;-46
2023/02/16 06:59:27;;;;;;;4.53;2.72;;;;;;;7.55;79.07;100261.28;4977958;28;20128;-44
2023/02/16 07:01:54;;;;;;;7.00;2.88;;;;;;;7.61;78.61;100278.53;4981136;28;20567;-44
2023/02/16 07:04:20;;;;;;;5.13;2.65;;;;;;;7.63;79.80;100269.13;4983806;28;20596;-44
2023/02/16 07:06:47;;;;;;;6.45;2.80;;;;;;;7.62;78.94;100268.25;4980830;28;20051;-43
2023/02/16 07:09:14;;;;;;;5.80;2.80;;;;;;;7.67;79.83;100282.06;4975961;28;20342;-45
2023/02/16 07:11:40;;;;;;;7.63;3.60;;;;;;;7.66;80.29;100280.31;4981795;28;20086;-45
2023/02/16 07:14:07;;;;;;;5.45;3.20;;;;;;;7.69;79.68;100262.31;4975817;28;20125;-46
2023/02/16 07:16:33;;;;;;;6.55;3.17;;;;;;;7.67;80.46;100266.59;4981162;28;20154;-44
2023/02/16 07:19:00;;;;;;;7.60;2.25;;;;;;;7.67;80.75;100266.59;4981114;28;20541;-44
2023/02/16 07:21:27;;;;;;;5.60;3.33;;;;;;;7.75;79.26;100278.72;4981084;28;20502;-45
2023/02/16 07:23:53;;;;;;;6.90;3.10;;;;;;;7.72;80.40;100285.56;4977638;28;20502;-44
2023/02/16 07:26:20;;;;;;;6.78;2.10;;;;;;;7.80;79.33;100274.50;4976449;28;20682;-45
2023/02/16 07:28:46;;;;;;;10.00;4.03;;;;;;;7.86;80.40;100277.13;4978115;28;20082;-44
2023/02/16 07:31:15;;;;;;;8.13;3.58;;;;;;;7.87;79.76;100268.53;4980453;28;20490;-44
2023/02/16 07:33:42;;;;;;;12.57;3.65;;;;;;;7.86;80.55;100276.28;4991030;28;20049;-44
2023/02/16 07:36:10;;;;;;;6.32;2.97;;;;;;;7.90;79.68;100273.75;5011172;28;20154;-46
2023/02/16 07:38:40;;;;;;;12.90;4.38;;;;;;;7.93;79.50;100278.94;4974554;28;20054;-45
2023/02/16 07:41:07;;;;;;;8.38;3.78;;;;;;;7.94;80.11;100278.09;4993431;28;20038;-44
2023/02/16 07:43:37;;;;;;;8.82;3.80;;;;;;;7.97;80.81;100272.09;4993090;28;20055;-45
2023/02/16 07:46:04;;;;;;;5.70;3.45;;;;;;;8.03;80.49;100284.19;4994018;28;20041;-45
2023/02/16 07:48:31;;;;;;;6.47;3.53;;;;;;;8.03;79.82;100279.91;4977776;28;20055;-45
2023/02/16 07:50:58;;;;;;;9.20;4.65;;;;;;;8.05;79.78;100275.66;4979201;28;20090;-45
2023/02/16 07:53:25;;;;;;;9.10;3.40;;;;;;;8.10;80.47;100279.13;4975913;28;20046;-45
2023/02/16 07:55:51;;;;;;;7.30;3.88;;;;;;;8.19;80.21;100280.09;4979899;28;20191;-45
2023/02/16 07:58:34;;;;;;;7.18;3.63;;;;;;;8.21;79.30;100279.25;4978049;28;20046;-47
2023/02/16 08:01:08;;;;;;;9.70;3.95;;;;;;;8.18;79.62;100268.88;4984173;28;20050;-45
2023/02/16 08:03:35;;;;;;;7.07;3.78;;;;;;;8.27;79.99;100272.44;5010120;28;20482;-43
2023/02/16 08:06:02;;;;;;;11.43;3.92;;;;;;;8.26;80.14;100275.84;4978163;28;20047;-45
2023/02/16 08:08:30;;;;;;;9.35;4.53;;;;;;;8.32;79.68;100273.34;4975677;28;20057;-44
2023/02/16 08:10:56;;;;;;;10.50;6.50;;;;;;;8.33;80.01;100255.28;4976417;28;20922;-43
2023/02/16 08:13:23;;;;;;;8.25;4.00;;;;;;;8.35;80.09;100265.63;4977954;28;20085;-49
2023/02/16 08:15:49;;;;;;;11.20;4.05;;;;;;;8.36;80.51;100269.94;4994538;28;20050;-44
2023/02/16 08:18:16;;;;;;;11.25;5.10;;;;;;;8.39;79.92;100263.94;4997173;28;20092;-44
2023/02/16 08:20:43;;;;;;;6.70;3.38;;;;;;;8.43;80.38;100261.41;4995729;28;20607;-44
2023/02/16 08:23:30;;;;;;;10.98;4.65;;;;;;;8.43;80.28;100264.00;4999616;28;20050;-46
2023/02/16 08:25:57;;;;;;;14.40;6.95;;;;;;;8.45;80.53;100266.59;4998539;28;20050;-46
2023/02/16 08:28:27;;;;;;;9.25;4.85;;;;;;;8.46;80.25;100265.72;4997573;28;20084;-44
2023/02/16 08:30:54;;;;;;;15.52;7.40;;;;;;;8.49;80.02;100274.34;5000887;28;20131;-44
2023/02/16 08:33:21;;;;;;;17.63;8.73;;;;;;;8.56;80.56;100275.34;5001569;28;20049;-46
2023/02/16 08:35:47;;;;;;;22.42;11.75;;;;;;;8.56;80.50;100282.19;5003863;28;20504;-44
2023/02/16 08:38:15;;;;;;;21.13;11.90;;;;;;;8.61;79.57;100278.81;5001236;28;20505;-44
2023/02/16 08:40:47;;;;;;;14.98;7.72;;;;;;;8.64;80.57;100277.97;5001103;28;20078;-45
2023/02/16 08:43:14;;;;;;;14.48;6.95;;;;;;;8.67;80.26;100278.00;5002390;28;20050;-45
2023/02/16 08:45:46;;;;;;;13.63;7.55;;;;;;;8.68;80.69;100295.22;5003629;28;20046;-46
2023/02/16 08:48:13;;;;;;;13.25;7.13;;;;;;;8.71;80.33;100290.09;5001036;28;20133;-45
2023/02/16 08:50:55;;;;;;;9.95;4.53;;;;;;;8.72;80.61;100286.63;5001362;28;20089;-45
2023/02/16 08:53:22;;;;;;;12.23;5.57;;;;;;;8.73;80.36;100293.56;5004969;28;20085;-45
2023/02/16 08:55:52;;;;;;;8.13;3.88;;;;;;;8.77;80.10;100288.41;5038969;28;20490;-46
2023/02/16 08:58:19;;;;;;;8.57;3.45;;;;;;;8.80;80.04;100284.13;5006145;28;20193;-45
2023/02/16 09:00:46;;;;;;;11.57;4.80;;;;;;;8.83;80.30;100288.47;5004151;28;20117;-44
2023/02/16 09:03:12;;;;;;;12.40;4.72;;;;;;;8.86;80.39;100288.50;4999536;28;20195;-45
2023/02/16 09:05:39;;;;;;;11.75;5.57;;;;;;;8.89;80.18;100282.47;4998637;28;20073;-46
2023/02/16 09:08:05;;;;;;;11.45;5.03;;;;;;;8.90;80.41;100285.06;5006547;28;20037;-45
2023/02/16 09:10:32;;;;;;;9.30;5.32;;;;;;;8.93;80.26;100285.09;5002821;28;20136;-45
2023/02/16 09:12:59;;;;;;;11.55;4.25;;;;;;;9.01;80.30;100277.41;4994557;28;20616;-46
2023/02/16 09:15:25;;;;;;;8.88;4.85;;;;;;;9.03;80.67;100280.00;4998878;28;20057;-44
2023/02/16 09:17:52;;;;;;;16.00;4.20;;;;;;;9.12;80.02;100286.09;5004866;28;20140;-44
2023/02/16 09:20:19;;;;;;;9.77;5.05;;;;;;;9.14;80.72;100286.09;5000518;28;20149;-45
2023/02/16 09:22:46;;;;;;;8.20;3.80;;;;;;;9.21;80.32;100294.75;5003103;28;20077;-45
2023/02/16 09:25:14;;;;;;;9.68;4.40;;;;;;;9.27;80.18;100297.41;5002195;28;20073;-46
2023/02/16 09:27:42;;;;;;;9.45;3.72;;;;;;;9.33;80.38;100291.41;4993156;28;20460;-44
2023/02/16 09:30:08;;;;;;;7.75;3.95;;;;;;;9.37;80.01;100293.16;5001359;28;20136;-45
2023/02/16 09:32:35;;;;;;;7.40;4.30;;;;;;;9.40;79.68;100295.75;5003377;28;20078;-45
2023/02/16 09:35:03;;;;;;;8.88;3.90;;;;;;;9.45;79.81;100286.31;5002504;28;20054;-46
2023/02/16 09:37:31;;;;;;;11.43;3.67;;;;;;;9.52;79.81;100279.44;5004696;28;20659;-45
2023/02/16 09:39:57;;;;;;;9.38;3.85;;;;;;;9.56;80.20;100276.00;5003027;28;20229;-46
2023/02/16 09:42:33;;;;;;;10.15;6.03;;;;;;;9.65;79.51;100280.38;5000621;28;20070;-45
2023/02/16 09:45:19;;;;;;;11.07;5.05;;;;;;;9.71;80.24;100284.72;5006224;28;20693;-48
2023/02/16 09:47:48;;;;;;;15.35;6.32;;;;;;;9.85;80.12;100269.25;4998058;28;20053;-46
2023/02/16 09:50:19;;;;;;;9.82;5.72;;;;;;;9.98;79.43;100273.63;4998181;28;20092;-46
2023/02/16 09:53:18;;;;;;;10.88;5.53;;;;;;;10.06;79.53;100285.72;5031706;28;20050;-47
2023/02/16 09:55:58;;;;;;;8.70;4.68;;;;;;;10.10;79.92;100284.88;5004395;28;20050;-44
2023/02/16 09:58:33;;;;;;;7.00;3.78;;;;;;;10.17;79.72;100294.38;5033031;28;20077;-46
2023/02/16 10:06:53;;;;;;;7.20;3.10;;;;;;;10.39;79.30;100289.25;5029335;27;20422;-46
2023/02/16 10:09:20;;;;;;;7.20;3.03;;;;;;;10.50;79.98;100297.94;5008636;28;20390;-46
2023/02/16 10:11:56;;;;;;;7.60;4.05;;;;;;;10.61;79.40;100299.69;5014067;28;20499;-47
2023/02/16 10:17:42;;;;;;;6.25;3.13;;;;;;;10.86;78.30;100312.63;5073622;27;20757;-46
2023/02/16 10:20:31;;;;;;;5.60;2.50;;;;;;;10.90;77.87;100316.97;5010804;28;20041;-46
2023/02/16 10:23:17;;;;;;;6.78;2.92;;;;;;;10.93;78.12;100319.56;5031117;28;20045;-47
2023/02/16 10:26:13;;;;;;;5.00;2.22;;;;;;;10.97;78.14;100308.31;5017413;28;20050;-45
2023/02/16 10:34:07;;;;;;;5.65;2.40;;;;;;;11.01;78.32;100304.84;5070261;27;20747;-46
2023/02/16 10:42:04;;;;;;;4.57;2.25;;;;;;;11.14;77.68;100299.66;5066640;27;20474;-46
2023/02/16 10:44:39;;;;;;;3.90;2.05;;;;;;;11.20;77.79;100302.25;5055265;28;20370;-47
2023/02/16 10:47:23;;;;;;;4.20;1.75;;;;;;;11.23;77.67;100307.44;5055282;28;20048;-47
2023/02/16 10:49:51;;;;;;;3.83;1.77;;;;;;;11.27;77.62;100301.38;5057476;28;20060;-46
2023/02/16 10:52:19;;;;;;;3.83;1.45;;;;;;;11.28;77.94;100303.09;5058848;28;20550;-45
2023/02/16 10:54:48;;;;;;;3.15;1.58;;;;;;;11.27;78.54;100306.56;5080010;28;20119;-45
2023/02/16 10:57:25;;;;;;;3.63;1.60;;;;;;;11.24;77.56;100306.56;5073339;28;20041;-48
2023/02/16 10:59:53;;;;;;;3.78;1.65;;;;;;;11.29;77.34;100303.97;5073929;28;20194;-45
2023/02/16 11:02:35;;;;;;;3.65;1.67;;;;;;;11.29;77.77;100310.00;5073987;28;20128;-46
2023/02/16 11:05:22;;;;;;;2.80;1.63;;;;;;;11.36;77.03;100320.38;5076783;28;20109;-46
2023/02/16 11:07:55;;;;;;;4.13;1.55;;;;;;;11.45;77.76;100309.97;5076623;28;20040;-47
2023/02/16 11:15:57;;;;;;;4.05;3.13;;;;;;;11.65;78.20;100316.88;5114770;27;20947;-46
2023/02/16 11:21:01;;;;;;;2.67;1.33;;;;;;;11.66;76.63;100303.03;5073317;27;20400;-46
2023/02/16 11:28:49;;;;;;;3.47;2.42;;;;;;;11.72;77.45;100296.97;5073157;27;20386;-48
2023/02/16 11:31:36;;;;;;;4.13;3.08;;;;;;;11.70;76.96;100294.38;5037568;28;20049;-46
2023/02/16 11:34:07;;;;;;;3.60;2.67;;;;;;;11.74;76.50;100279.63;5038748;28;20049;-48
2023/02/16 11:41:54;;;;;;;4.13;1.20;;;;;;;11.83;77.84;100275.28;5025896;28;20399;-48
2023/02/16 11:46:59;;;;;;;2.53;1.35;;;;;;;11.94;77.45;100279.56;5023595;27;20412;-46
2023/02/16 11:49:33;;;;;;;2.88;1.23;;;;;;;11.95;76.75;100269.19;4994318;28;20469;-46
2023/02/16 11:52:00;;;;;;;2.60;1.27;;;;;;;11.99;76.93;100270.00;4993306;28;20105;-45
2023/02/16 11:54:26;;;;;;;2.22;1.00;;;;;;;12.01;77.76;100268.28;5002479;28;20081;-46
2023/02/16 11:57:05;;;;;;;2.53;1.30;;;;;;;12.06;76.53;100265.69;4995103;28;20370;-48
2023/02/16 11:59:36;;;;;;;3.05;1.85;;;;;;;12.12;77.67;100277.78;5004654;28;20488;-46
2023/02/16 12:05:39;;;;;;;3.05;1.38;;;;;;;12.16;76.88;100287.28;5024462;28;20412;-45
2023/02/16 12:13:53;;;;;;;4.10;2.67;;;;;;;12.45;75.63;100283.63;5051650;28;20410;-46
2023/02/16 12:19:17;;;;;;;2.45;1.50;;;;;;;12.38;75.98;100297.53;5071538;27;20419;-47
2023/02/16 12:21:52;;;;;;;2.15;1.13;;;;;;;12.43;76.95;100290.59;5059786;28;20560;-46
2023/02/16 12:27:01;;;;;;;2.50;1.40;;;;;;;12.50;76.07;100287.06;5029530;28;20401;-47
2023/02/16 12:35:32;;;;;;;2.80;1.42;;;;;;;12.57;75.80;100308.69;5061808;27;20778;-47
2023/02/16 12:41:34;;;;;;;2.70;1.35;;;;;;;12.58;75.82;100313.88;5058074;27;20407;-46
2023/02/16 12:44:10;;;;;;;2.20;1.80;;;;;;;12.63;75.25;100312.97;5033043;28;20073;-45
2023/02/16 12:46:42;;;;;;;2.65;1.20;;;;;;;12.66;76.09;100312.97;5038630;28;20057;-46
2023/02/16 12:52:04;;;;;;;2.45;1.65;;;;;;;12.67;75.13;100299.94;5053631;27;20405;-46
2023/02/16 12:54:39;;;;;;;2.47;1.55;;;;;;;12.70;76.32;100301.66;5072015;28;20045;-45
2023/02/16 12:57:11;;;;;;;1.73;0.98;;;;;;;12.71;75.19;100313.78;5073924;28;20037;-46
2023/02/16 13:00:01;;;;;;;2.60;1.10;;;;;;;12.67;75.11;100312.91;5061664;28;20095;-45
2023/02/16 13:02:35;;;;;;;2.10;1.40;;;;;;;12.73;75.11;100319.81;5078601;28;20580;-45
2023/02/16 13:05:09;;;;;;;2.53;1.67;;;;;;;12.74;75.67;100316.34;5085755;28;20096;-45
2023/02/16 13:07:42;;;;;;;2.38;1.10;;;;;;;12.76;75.66;100316.34;5098384;28;20547;-46
2023/02/16 13:10:32;;;;;;;2.10;1.10;;;;;;;12.73;75.23;100307.69;5100303;28;20052;-45
2023/02/16 13:13:19;;;;;;;3.20;1.85;;;;;;;12.75;74.89;100299.00;5096791;28;20414;-44
2023/02/16 13:18:32;;;;;;;3.25;1.80;;;;;;;12.82;75.16;100308.50;5098329;27;20414;-46
2023/02/16 13:24:07;;;;;;;3.42;2.53;;;;;;;12.79;75.26;100290.31;5011106;28;20395;-46
2023/02/16 13:26:56;;;;;;;2.95;1.70;;;;;;;12.80;75.12;100297.25;4985404;28;20264;-47
2023/02/16 13:32:42;;;;;;;2.95;1.73;;;;;;;12.82;74.36;100288.56;5053917;27;20390;-46
2023/02/16 13:43:28;;;;;;;3.92;2.33;;;;;;;13.09;74.57;100276.19;5116889;27;20923;-46
2023/02/16 13:45:57;;;;;;;3.03;1.85;;;;;;;13.18;75.50;100271.78;5089509;28;20082;-48
2023/02/16 13:48:29;;;;;;;2.88;1.92;;;;;;;13.20;75.59;100277.81;5087718;27;20082;-48
2023/02/16 13:51:02;;;;;;;2.05;1.83;;;;;;;13.23;74.68;100270.84;5094540;28;20154;-45
2023/02/16 13:53:36;;;;;;;3.58;1.35;;;;;;;13.25;74.07;100278.66;5088541;28;20608;-47
2023/02/16 13:59:18;;;;;;;2.83;2.58;;;;;;;13.56;73.43;100269.66;5060957;27;20395;-47
2023/02/16 14:01:46;;;;;;;2.05;1.20;;;;;;;13.39;74.62;100262.03;4982144;28;20451;-47
2023/02/16 14:09:52;;;;;;;3.15;1.30;;;;;;;13.30;74.04;100258.66;5059228;27;20389;-47
2023/02/16 14:12:27;;;;;;;1.95;1.17;;;;;;;13.30;73.59;100269.06;5012336;28;20494;-45
2023/02/16 14:14:57;;;;;;;2.53;1.23;;;;;;;13.29;73.61;100262.13;4997935;28;20050;-45
2023/02/16 14:17:27;;;;;;;2.70;1.40;;;;;;;13.29;74.06;100267.34;4996760;28;20065;-46
2023/02/16 14:20:14;;;;;;;;;;;;;;;13.15;74.77;100256.19;5025187;28;20065;-46
2023/02/16 14:27:59;;;;;;;3.03;2.60;;;;;;;13.23;73.49;100256.97;5039916;27;20425;-48
2023/02/16 14:33:21;;;;;;;2.65;1.48;;;;;;;13.19;74.65;100257.91;5046161;28;20404;-47
2023/02/16 14:36:12;;;;;;;1.70;1.13;;;;;;;13.19;73.61;100260.50;5024074;28;20520;-46
2023/02/16 14:41:33;;;;;;;3.95;1.52;;;;;;;13.20;73.81;100272.59;5033625;28;20409;-46
2023/02/16 14:47:05;;;;;;;4.78;3.53;;;;;;;13.19;74.27;100287.38;5055882;27;20866;-45